sensor_id;sensor_type;location;lat;lon;timestamp;P1;durP1;ratioP1;P2;durP2;ratioP2
45893;SDS011;31603;51.148;16.932;2023-02-27T00:01:50;12.38;;;5.32;;
45893;SDS011;31603;51.148;16.932;2023-02-27T00:04:17;14.43;;;5.70;;
45893;SDS011;31603;51.148;16.932;2023-02-27T00:06:45;13.98;;;6.22;;
45893;SDS011;31603;51.148;16.932;2023-02-27T00:09:11;17.58;;;6.97;;
45893;SDS011;31603;51.148;16.932;2023-02-27T00:11:37;21.58;;;8.20;;
45893;SDS011;31603;51.148;16.932;2023-02-27T00:14:04;19.80;;;7.13;;
45893;SDS011;31603;51.148;16.932;2023-02-27T00:16:31;14.18;;;6.75;;
45893;SDS011;31603;51.148;16.932;2023-02-27T00:18:58;15.75;;;7.60;;
45893;SDS011;31603;51.148;16.932;2023-02-27T00:21:26;15.80;;;7.82;;
45893;SDS011;31603;51.148;16.932;2023-02-27T00:23:54;15.60;;;6.53;;
45893;SDS011;31603;51.148;16.932;2023-02-27T00:26:21;11.57;;;5.43;;
45893;SDS011;31603;51.148;16.932;2023-02-27T00:28:47;14.20;;;4.97;;
45893;SDS011;31603;51.148;16.932;2023-02-27T00:31:14;11.23;;;5.95;;
45893;SDS011;31603;51.148;16.932;2023-02-27T00:33:41;18.25;;;6.35;;
45893;SDS011;31603;51.148;16.932;2023-02-27T00:36:07;10.25;;;4.78;;
45893;SDS011;31603;51.148;16.932;2023-02-27T00:38:34;12.50;;;5.30;;
45893;SDS011;31603;51.148;16.932;2023-02-27T00:41:02;16.55;;;5.68;;
45893;SDS011;31603;51.148;16.932;2023-02-27T00:43:29;15.23;;;5.15;;
45893;SDS011;31603;51.148;16.932;2023-02-27T00:45:56;11.73;;;4.70;;
45893;SDS011;31603;51.148;16.932;2023-02-27T00:48:22;13.05;;;4.80;;
45893;SDS011;31603;51.148;16.932;2023-02-27T00:50:49;10.68;;;4.80;;
45893;SDS011;31603;51.148;16.932;2023-02-27T00:53:16;11.75;;;4.28;;
45893;SDS011;31603;51.148;16.932;2023-02-27T00:55:43;12.82;;;4.45;;
45893;SDS011;31603;51.148;16.932;2023-02-27T00:58:11;15.02;;;4.53;;
45893;SDS011;31603;51.148;16.932;2023-02-27T01:00:37;8.98;;;4.15;;
45893;SDS011;31603;51.148;16.932;2023-02-27T01:03:04;12.88;;;5.18;;
45893;SDS011;31603;51.148;16.932;2023-02-27T01:05:30;11.68;;;4.72;;
45893;SDS011;31603;51.148;16.932;2023-02-27T01:07:57;10.73;;;4.53;;
45893;SDS011;31603;51.148;16.932;2023-02-27T01:10:23;13.25;;;4.95;;
45893;SDS011;31603;51.148;16.932;2023-02-27T01:12:50;10.10;;;4.32;;
45893;SDS011;31603;51.148;16.932;2023-02-27T01:15:19;13.90;;;4.95;;
45893;SDS011;31603;51.148;16.932;2023-02-27T01:17:46;12.85;;;4.63;;
45893;SDS011;31603;51.148;16.932;2023-02-27T01:20:13;9.05;;;3.90;;
45893;SDS011;31603;51.148;16.932;2023-02-27T01:22:40;11.27;;;4.10;;
45893;SDS011;31603;51.148;16.932;2023-02-27T01:25:06;8.20;;;4.20;;
45893;SDS011;31603;51.148;16.932;2023-02-27T01:27:35;12.90;;;4.68;;
45893;SDS011;31603;51.148;16.932;2023-02-27T01:30:01;9.93;;;4.32;;
45893;SDS011;31603;51.148;16.932;2023-02-27T01:32:30;8.73;;;4.30;;
45893;SDS011;31603;51.148;16.932;2023-02-27T01:34:56;10.65;;;4.40;;
45893;SDS011;31603;51.148;16.932;2023-02-27T01:37:23;12.25;;;4.30;;
45893;SDS011;31603;51.148;16.932;2023-02-27T01:39:49;13.07;;;4.38;;
45893;SDS011;31603;51.148;16.932;2023-02-27T01:42:18;12.75;;;4.30;;
45893;SDS011;31603;51.148;16.932;2023-02-27T01:45:06;12.23;;;5.15;;
45893;SDS011;31603;51.148;16.932;2023-02-27T01:47:46;11.25;;;3.92;;
45893;SDS011;31603;51.148;16.932;2023-02-27T01:50:16;12.00;;;5.05;;
45893;SDS011;31603;51.148;16.932;2023-02-27T01:52:45;9.13;;;4.20;;
45893;SDS011;31603;51.148;16.932;2023-02-27T01:55:16;9.13;;;4.28;;
45893;SDS011;31603;51.148;16.932;2023-02-27T01:57:43;9.98;;;4.55;;
45893;SDS011;31603;51.148;16.932;2023-02-27T02:00:11;7.97;;;3.92;;
45893;SDS011;31603;51.148;16.932;2023-02-27T02:02:40;11.43;;;4.18;;
45893;SDS011;31603;51.148;16.932;2023-02-27T02:05:11;11.10;;;4.57;;
45893;SDS011;31603;51.148;16.932;2023-02-27T02:07:39;12.45;;;4.28;;
45893;SDS011;31603;51.148;16.932;2023-02-27T02:10:08;13.60;;;4.82;;
45893;SDS011;31603;51.148;16.932;2023-02-27T02:12:37;11.23;;;4.43;;
45893;SDS011;31603;51.148;16.932;2023-02-27T02:15:05;11.32;;;4.10;;
45893;SDS011;31603;51.148;16.932;2023-02-27T02:17:35;10.05;;;3.83;;
45893;SDS011;31603;51.148;16.932;2023-02-27T02:23:19;12.98;;;4.28;;
45893;SDS011;31603;51.148;16.932;2023-02-27T02:26:06;9.52;;;3.80;;
45893;SDS011;31603;51.148;16.932;2023-02-27T02:35:05;7.55;;;3.20;;
45893;SDS011;31603;51.148;16.932;2023-02-27T02:41:05;9.48;;;4.15;;
45893;SDS011;31603;51.148;16.932;2023-02-27T02:43:39;12.68;;;3.55;;
45893;SDS011;31603;51.148;16.932;2023-02-27T02:46:13;9.82;;;4.07;;
45893;SDS011;31603;51.148;16.932;2023-02-27T02:48:46;11.00;;;4.35;;
45893;SDS011;31603;51.148;16.932;2023-02-27T02:51:21;10.00;;;3.85;;
45893;SDS011;31603;51.148;16.932;2023-02-27T02:53:58;8.75;;;3.63;;
45893;SDS011;31603;51.148;16.932;2023-02-27T02:56:33;8.70;;;3.50;;
45893;SDS011;31603;51.148;16.932;2023-02-27T02:59:03;8.18;;;3.58;;
45893;SDS011;31603;51.148;16.932;2023-02-27T03:01:35;10.63;;;3.63;;
45893;SDS011;31603;51.148;16.932;2023-02-27T03:04:07;9.55;;;3.67;;
45893;SDS011;31603;51.148;16.932;2023-02-27T03:06:38;8.90;;;3.45;;
45893;SDS011;31603;51.148;16.932;2023-02-27T03:09:10;8.95;;;3.72;;
45893;SDS011;31603;51.148;16.932;2023-02-27T03:11:46;8.40;;;3.45;;
45893;SDS011;31603;51.148;16.932;2023-02-27T03:14:17;6.00;;;2.88;;
45893;SDS011;31603;51.148;16.932;2023-02-27T03:16:48;8.75;;;3.28;;
45893;SDS011;31603;51.148;16.932;2023-02-27T03:19:19;8.82;;;3.20;;
45893;SDS011;31603;51.148;16.932;2023-02-27T03:21:49;9.10;;;3.00;;
45893;SDS011;31603;51.148;16.932;2023-02-27T03:24:21;7.45;;;2.83;;
45893;SDS011;31603;51.148;16.932;2023-02-27T03:26:52;8.52;;;3.38;;
45893;SDS011;31603;51.148;16.932;2023-02-27T03:29:25;8.65;;;3.60;;
45893;SDS011;31603;51.148;16.932;2023-02-27T03:31:57;9.20;;;3.63;;
45893;SDS011;31603;51.148;16.932;2023-02-27T03:34:28;11.32;;;4.80;;
45893;SDS011;31603;51.148;16.932;2023-02-27T03:36:59;13.98;;;6.95;;
45893;SDS011;31603;51.148;16.932;2023-02-27T03:39:34;13.05;;;7.32;;
45893;SDS011;31603;51.148;16.932;2023-02-27T03:42:13;17.67;;;9.00;;
45893;SDS011;31603;51.148;16.932;2023-02-27T03:44:48;16.05;;;9.02;;
45893;SDS011;31603;51.148;16.932;2023-02-27T03:47:20;16.70;;;8.02;;
45893;SDS011;31603;51.148;16.932;2023-02-27T03:49:47;17.30;;;7.07;;
45893;SDS011;31603;51.148;16.932;2023-02-27T03:52:16;14.13;;;6.57;;
45893;SDS011;31603;51.148;16.932;2023-02-27T03:54:44;13.13;;;5.68;;
45893;SDS011;31603;51.148;16.932;2023-02-27T03:57:17;7.78;;;4.18;;
45893;SDS011;31603;51.148;16.932;2023-02-27T03:59:43;8.45;;;3.97;;
45893;SDS011;31603;51.148;16.932;2023-02-27T04:02:10;8.85;;;3.63;;
45893;SDS011;31603;51.148;16.932;2023-02-27T04:04:37;8.02;;;3.60;;
45893;SDS011;31603;51.148;16.932;2023-02-27T04:07:05;11.32;;;3.72;;
45893;SDS011;31603;51.148;16.932;2023-02-27T04:09:55;9.95;;;4.45;;
45893;SDS011;31603;51.148;16.932;2023-02-27T04:15:31;8.25;;;4.00;;
45893;SDS011;31603;51.148;16.932;2023-02-27T04:18:12;11.32;;;3.92;;
45893;SDS011;31603;51.148;16.932;2023-02-27T04:20:50;10.55;;;4.05;;
45893;SDS011;31603;51.148;16.932;2023-02-27T04:23:22;15.45;;;5.47;;
45893;SDS011;31603;51.148;16.932;2023-02-27T04:25:58;15.98;;;6.90;;
45893;SDS011;31603;51.148;16.932;2023-02-27T04:28:38;12.52;;;4.78;;
45893;SDS011;31603;51.148;16.932;2023-02-27T04:31:12;14.00;;;5.60;;
45893;SDS011;31603;51.148;16.932;2023-02-27T04:33:43;19.60;;;9.98;;
45893;SDS011;31603;51.148;16.932;2023-02-27T04:36:17;17.67;;;8.55;;
45893;SDS011;31603;51.148;16.932;2023-02-27T04:38:53;17.65;;;8.25;;
45893;SDS011;31603;51.148;16.932;2023-02-27T04:41:28;18.67;;;10.30;;
45893;SDS011;31603;51.148;16.932;2023-02-27T04:43:58;20.48;;;9.57;;
45893;SDS011;31603;51.148;16.932;2023-02-27T04:46:30;17.23;;;8.05;;
45893;SDS011;31603;51.148;16.932;2023-02-27T04:49:01;18.90;;;8.63;;
45893;SDS011;31603;51.148;16.932;2023-02-27T04:51:32;13.98;;;7.43;;
45893;SDS011;31603;51.148;16.932;2023-02-27T04:54:03;15.68;;;7.30;;
45893;SDS011;31603;51.148;16.932;2023-02-27T04:56:34;10.88;;;5.97;;
45893;SDS011;31603;51.148;16.932;2023-02-27T04:59:07;11.75;;;5.15;;
45893;SDS011;31603;51.148;16.932;2023-02-27T05:01:40;13.70;;;5.88;;
45893;SDS011;31603;51.148;16.932;2023-02-27T05:04:10;11.85;;;4.75;;
45893;SDS011;31603;51.148;16.932;2023-02-27T05:06:41;10.95;;;5.50;;
45893;SDS011;31603;51.148;16.932;2023-02-27T05:09:12;10.90;;;5.32;;
45893;SDS011;31603;51.148;16.932;2023-02-27T05:11:44;12.25;;;5.03;;
45893;SDS011;31603;51.148;16.932;2023-02-27T05:14:16;14.48;;;5.90;;
45893;SDS011;31603;51.148;16.932;2023-02-27T05:16:48;13.20;;;5.85;;
45893;SDS011;31603;51.148;16.932;2023-02-27T05:19:19;13.13;;;7.65;;
45893;SDS011;31603;51.148;16.932;2023-02-27T05:21:47;16.70;;;6.07;;
45893;SDS011;31603;51.148;16.932;2023-02-27T05:24:20;10.52;;;4.90;;
45893;SDS011;31603;51.148;16.932;2023-02-27T05:27:00;9.27;;;5.18;;
45893;SDS011;31603;51.148;16.932;2023-02-27T05:29:35;13.88;;;5.82;;
45893;SDS011;31603;51.148;16.932;2023-02-27T05:32:15;14.50;;;6.47;;
45893;SDS011;31603;51.148;16.932;2023-02-27T05:34:48;18.30;;;9.45;;
45893;SDS011;31603;51.148;16.932;2023-02-27T05:37:19;15.20;;;7.28;;
45893;SDS011;31603;51.148;16.932;2023-02-27T05:39:50;20.42;;;9.65;;
45893;SDS011;31603;51.148;16.932;2023-02-27T05:42:20;15.18;;;6.88;;
45893;SDS011;31603;51.148;16.932;2023-02-27T05:44:54;16.50;;;7.30;;
45893;SDS011;31603;51.148;16.932;2023-02-27T05:47:26;13.35;;;5.90;;
45893;SDS011;31603;51.148;16.932;2023-02-27T05:49:58;10.25;;;5.22;;
45893;SDS011;31603;51.148;16.932;2023-02-27T05:52:28;16.15;;;4.57;;
45893;SDS011;31603;51.148;16.932;2023-02-27T05:54:58;21.55;;;7.95;;
45893;SDS011;31603;51.148;16.932;2023-02-27T05:57:29;16.98;;;6.85;;
45893;SDS011;31603;51.148;16.932;2023-02-27T06:00:03;11.77;;;5.35;;
45893;SDS011;31603;51.148;16.932;2023-02-27T06:02:37;13.38;;;5.57;;
45893;SDS011;31603;51.148;16.932;2023-02-27T06:05:04;12.18;;;5.13;;
45893;SDS011;31603;51.148;16.932;2023-02-27T06:07:32;13.02;;;6.00;;
45893;SDS011;31603;51.148;16.932;2023-02-27T06:09:58;16.63;;;6.25;;
45893;SDS011;31603;51.148;16.932;2023-02-27T06:12:26;16.95;;;7.60;;
45893;SDS011;31603;51.148;16.932;2023-02-27T06:14:52;18.27;;;7.53;;
45893;SDS011;31603;51.148;16.932;2023-02-27T06:17:18;15.85;;;6.97;;
45893;SDS011;31603;51.148;16.932;2023-02-27T06:19:47;14.40;;;5.25;;
45893;SDS011;31603;51.148;16.932;2023-02-27T06:22:28;16.35;;;6.80;;
45893;SDS011;31603;51.148;16.932;2023-02-27T06:24:54;25.67;;;9.20;;
45893;SDS011;31603;51.148;16.932;2023-02-27T06:27:21;18.48;;;7.80;;
45893;SDS011;31603;51.148;16.932;2023-02-27T06:29:47;15.80;;;7.03;;
45893;SDS011;31603;51.148;16.932;2023-02-27T06:32:13;12.35;;;5.22;;
45893;SDS011;31603;51.148;16.932;2023-02-27T06:34:40;12.75;;;5.10;;
45893;SDS011;31603;51.148;16.932;2023-02-27T06:37:08;14.35;;;6.50;;
45893;SDS011;31603;51.148;16.932;2023-02-27T06:39:34;15.32;;;6.13;;
45893;SDS011;31603;51.148;16.932;2023-02-27T06:42:01;13.50;;;6.13;;
45893;SDS011;31603;51.148;16.932;2023-02-27T06:44:27;15.88;;;4.10;;
45893;SDS011;31603;51.148;16.932;2023-02-27T06:46:54;12.27;;;5.00;;
45893;SDS011;31603;51.148;16.932;2023-02-27T06:49:21;12.82;;;4.35;;
45893;SDS011;31603;51.148;16.932;2023-02-27T06:51:48;12.23;;;5.55;;
45893;SDS011;31603;51.148;16.932;2023-02-27T06:54:17;9.75;;;5.60;;
45893;SDS011;31603;51.148;16.932;2023-02-27T06:56:44;13.35;;;5.43;;
45893;SDS011;31603;51.148;16.932;2023-02-27T06:59:10;11.43;;;4.90;;
45893;SDS011;31603;51.148;16.932;2023-02-27T07:01:37;19.75;;;7.95;;
45893;SDS011;31603;51.148;16.932;2023-02-27T07:04:03;18.98;;;7.85;;
45893;SDS011;31603;51.148;16.932;2023-02-27T07:06:30;26.52;;;9.50;;
45893;SDS011;31603;51.148;16.932;2023-02-27T07:08:56;20.77;;;7.80;;
45893;SDS011;31603;51.148;16.932;2023-02-27T07:13:56;15.82;;;6.10;;
45893;SDS011;31603;51.148;16.932;2023-02-27T07:16:23;16.42;;;6.82;;
45893;SDS011;31603;51.148;16.932;2023-02-27T07:18:49;12.38;;;5.00;;
45893;SDS011;31603;51.148;16.932;2023-02-27T07:21:15;16.20;;;5.63;;
45893;SDS011;31603;51.148;16.932;2023-02-27T07:23:42;15.57;;;6.07;;
45893;SDS011;31603;51.148;16.932;2023-02-27T07:26:11;17.40;;;6.60;;
45893;SDS011;31603;51.148;16.932;2023-02-27T07:28:39;12.15;;;5.18;;
45893;SDS011;31603;51.148;16.932;2023-02-27T07:31:05;12.30;;;5.15;;
45893;SDS011;31603;51.148;16.932;2023-02-27T07:33:31;11.38;;;4.78;;
45893;SDS011;31603;51.148;16.932;2023-02-27T07:35:58;16.83;;;6.18;;
45893;SDS011;31603;51.148;16.932;2023-02-27T07:38:25;12.15;;;5.28;;
45893;SDS011;31603;51.148;16.932;2023-02-27T07:40:52;14.55;;;5.60;;
45893;SDS011;31603;51.148;16.932;2023-02-27T07:43:22;12.05;;;5.32;;
45893;SDS011;31603;51.148;16.932;2023-02-27T07:45:50;13.57;;;5.38;;
45893;SDS011;31603;51.148;16.932;2023-02-27T07:48:17;12.15;;;5.15;;
45893;SDS011;31603;51.148;16.932;2023-02-27T07:50:44;11.35;;;5.70;;
45893;SDS011;31603;51.148;16.932;2023-02-27T07:53:10;10.57;;;5.20;;
45893;SDS011;31603;51.148;16.932;2023-02-27T07:55:37;11.57;;;5.07;;
45893;SDS011;31603;51.148;16.932;2023-02-27T07:58:03;12.05;;;5.22;;
45893;SDS011;31603;51.148;16.932;2023-02-27T08:00:30;13.43;;;6.32;;
45893;SDS011;31603;51.148;16.932;2023-02-27T08:03:00;12.43;;;5.22;;
45893;SDS011;31603;51.148;16.932;2023-02-27T08:05:26;9.23;;;4.63;;
45893;SDS011;31603;51.148;16.932;2023-02-27T08:07:53;10.95;;;5.45;;
45893;SDS011;31603;51.148;16.932;2023-02-27T08:10:19;14.20;;;5.25;;
45893;SDS011;31603;51.148;16.932;2023-02-27T08:12:46;12.07;;;5.40;;
45893;SDS011;31603;51.148;16.932;2023-02-27T08:15:13;10.13;;;4.85;;
45893;SDS011;31603;51.148;16.932;2023-02-27T08:17:39;11.32;;;5.03;;
45893;SDS011;31603;51.148;16.932;2023-02-27T08:20:08;12.05;;;5.75;;
45893;SDS011;31603;51.148;16.932;2023-02-27T08:22:37;7.60;;;3.30;;
45893;SDS011;31603;51.148;16.932;2023-02-27T08:25:04;9.52;;;3.28;;
45893;SDS011;31603;51.148;16.932;2023-02-27T08:27:36;9.32;;;3.90;;
45893;SDS011;31603;51.148;16.932;2023-02-27T08:30:03;10.52;;;4.18;;
45893;SDS011;31603;51.148;16.932;2023-02-27T08:32:30;13.48;;;5.25;;
45893;SDS011;31603;51.148;16.932;2023-02-27T08:34:57;8.98;;;3.92;;
45893;SDS011;31603;51.148;16.932;2023-02-27T08:37:25;11.10;;;3.67;;
45893;SDS011;31603;51.148;16.932;2023-02-27T08:39:52;8.20;;;4.00;;
45893;SDS011;31603;51.148;16.932;2023-02-27T08:42:19;9.70;;;4.40;;
45893;SDS011;31603;51.148;16.932;2023-02-27T08:44:45;9.40;;;3.70;;
45893;SDS011;31603;51.148;16.932;2023-02-27T08:47:14;11.15;;;4.50;;
45893;SDS011;31603;51.148;16.932;2023-02-27T08:49:41;10.07;;;4.07;;
45893;SDS011;31603;51.148;16.932;2023-02-27T08:52:07;11.80;;;4.57;;
45893;SDS011;31603;51.148;16.932;2023-02-27T08:54:35;8.52;;;3.85;;
45893;SDS011;31603;51.148;16.932;2023-02-27T08:57:02;9.30;;;3.90;;
45893;SDS011;31603;51.148;16.932;2023-02-27T08:59:31;11.52;;;4.00;;
45893;SDS011;31603;51.148;16.932;2023-02-27T09:01:57;8.63;;;3.25;;
45893;SDS011;31603;51.148;16.932;2023-02-27T09:04:24;8.55;;;4.00;;
45893;SDS011;31603;51.148;16.932;2023-02-27T09:06:50;9.70;;;4.22;;
45893;SDS011;31603;51.148;16.932;2023-02-27T09:09:18;8.38;;;3.30;;
45893;SDS011;31603;51.148;16.932;2023-02-27T09:11:49;8.65;;;3.22;;
45893;SDS011;31603;51.148;16.932;2023-02-27T09:14:30;7.95;;;4.00;;
45893;SDS011;31603;51.148;16.932;2023-02-27T09:16:56;5.60;;;3.25;;
45893;SDS011;31603;51.148;16.932;2023-02-27T09:19:32;10.73;;;4.38;;
45893;SDS011;31603;51.148;16.932;2023-02-27T09:21:59;13.65;;;4.75;;
45893;SDS011;31603;51.148;16.932;2023-02-27T09:24:25;9.45;;;4.13;;
45893;SDS011;31603;51.148;16.932;2023-02-27T09:26:53;14.18;;;6.60;;
45893;SDS011;31603;51.148;16.932;2023-02-27T09:29:20;10.35;;;5.13;;
45893;SDS011;31603;51.148;16.932;2023-02-27T09:31:47;9.73;;;3.90;;
45893;SDS011;31603;51.148;16.932;2023-02-27T09:34:15;6.40;;;3.13;;
45893;SDS011;31603;51.148;16.932;2023-02-27T09:36:42;7.57;;;3.40;;
45893;SDS011;31603;51.148;16.932;2023-02-27T09:39:08;7.28;;;3.53;;
45893;SDS011;31603;51.148;16.932;2023-02-27T09:41:38;6.95;;;2.80;;
45893;SDS011;31603;51.148;16.932;2023-02-27T09:44:34;7.55;;;3.15;;
45893;SDS011;31603;51.148;16.932;2023-02-27T09:47:04;7.68;;;3.42;;
45893;SDS011;31603;51.148;16.932;2023-02-27T09:49:40;10.52;;;3.67;;
45893;SDS011;31603;51.148;16.932;2023-02-27T09:52:17;6.50;;;3.30;;
45893;SDS011;31603;51.148;16.932;2023-02-27T09:54:43;6.35;;;2.55;;
45893;SDS011;31603;51.148;16.932;2023-02-27T09:57:11;6.40;;;2.90;;
45893;SDS011;31603;51.148;16.932;2023-02-27T09:59:46;8.57;;;3.50;;
45893;SDS011;31603;51.148;16.932;2023-02-27T10:02:21;8.52;;;3.67;;
45893;SDS011;31603;51.148;16.932;2023-02-27T10:04:58;6.78;;;3.03;;
45893;SDS011;31603;51.148;16.932;2023-02-27T10:07:35;9.90;;;3.72;;
45893;SDS011;31603;51.148;16.932;2023-02-27T10:10:11;7.30;;;3.00;;
45893;SDS011;31603;51.148;16.932;2023-02-27T10:12:53;5.63;;;2.50;;
45893;SDS011;31603;51.148;16.932;2023-02-27T10:15:33;8.05;;;3.55;;
45893;SDS011;31603;51.148;16.932;2023-02-27T10:18:05;7.70;;;4.13;;
45893;SDS011;31603;51.148;16.932;2023-02-27T10:20:40;5.32;;;2.58;;
45893;SDS011;31603;51.148;16.932;2023-02-27T10:23:16;4.93;;;2.97;;
45893;SDS011;31603;51.148;16.932;2023-02-27T10:25:46;5.28;;;2.22;;
45893;SDS011;31603;51.148;16.932;2023-02-27T10:28:19;5.50;;;2.33;;
45893;SDS011;31603;51.148;16.932;2023-02-27T10:30:49;5.78;;;2.70;;
45893;SDS011;31603;51.148;16.932;2023-02-27T10:33:21;5.10;;;2.60;;
45893;SDS011;31603;51.148;16.932;2023-02-27T10:35:52;5.78;;;2.72;;
45893;SDS011;31603;51.148;16.932;2023-02-27T10:38:20;6.28;;;2.72;;
45893;SDS011;31603;51.148;16.932;2023-02-27T10:40:55;6.28;;;3.10;;
45893;SDS011;31603;51.148;16.932;2023-02-27T10:43:24;7.43;;;3.15;;
45893;SDS011;31603;51.148;16.932;2023-02-27T10:45:53;6.95;;;2.60;;
45893;SDS011;31603;51.148;16.932;2023-02-27T10:48:20;5.43;;;2.63;;
45893;SDS011;31603;51.148;16.932;2023-02-27T10:50:48;5.05;;;2.65;;
45893;SDS011;31603;51.148;16.932;2023-02-27T10:53:18;6.88;;;3.10;;
45893;SDS011;31603;51.148;16.932;2023-02-27T10:55:47;14.18;;;7.50;;
45893;SDS011;31603;51.148;16.932;2023-02-27T10:58:25;6.65;;;2.90;;
45893;SDS011;31603;51.148;16.932;2023-02-27T11:00:59;5.95;;;2.67;;
45893;SDS011;31603;51.148;16.932;2023-02-27T11:03:31;5.03;;;2.38;;
45893;SDS011;31603;51.148;16.932;2023-02-27T11:06:00;3.45;;;2.05;;
45893;SDS011;31603;51.148;16.932;2023-02-27T11:08:30;3.95;;;2.22;;
45893;SDS011;31603;51.148;16.932;2023-02-27T11:10:59;5.20;;;2.20;;
45893;SDS011;31603;51.148;16.932;2023-02-27T11:13:30;3.78;;;2.08;;
45893;SDS011;31603;51.148;16.932;2023-02-27T11:16:07;5.47;;;2.10;;
45893;SDS011;31603;51.148;16.932;2023-02-27T11:18:37;6.55;;;2.53;;
45893;SDS011;31603;51.148;16.932;2023-02-27T11:21:08;7.85;;;3.42;;
45893;SDS011;31603;51.148;16.932;2023-02-27T11:23:38;9.52;;;4.05;;
45893;SDS011;31603;51.148;16.932;2023-02-27T11:26:18;5.25;;;2.03;;
45893;SDS011;31603;51.148;16.932;2023-02-27T11:29:02;3.83;;;1.75;;
45893;SDS011;31603;51.148;16.932;2023-02-27T11:31:31;4.93;;;2.00;;
45893;SDS011;31603;51.148;16.932;2023-02-27T11:34:00;2.55;;;1.67;;
45893;SDS011;31603;51.148;16.932;2023-02-27T11:36:39;5.90;;;2.15;;
45893;SDS011;31603;51.148;16.932;2023-02-27T11:39:16;2.13;;;1.23;;
45893;SDS011;31603;51.148;16.932;2023-02-27T11:41:48;2.63;;;1.40;;
45893;SDS011;31603;51.148;16.932;2023-02-27T11:44:15;3.13;;;1.48;;
45893;SDS011;31603;51.148;16.932;2023-02-27T11:46:45;4.88;;;2.35;;
45893;SDS011;31603;51.148;16.932;2023-02-27T11:49:16;4.95;;;2.00;;
45893;SDS011;31603;51.148;16.932;2023-02-27T11:51:53;3.58;;;2.17;;
45893;SDS011;31603;51.148;16.932;2023-02-27T11:54:31;3.58;;;1.80;;
45893;SDS011;31603;51.148;16.932;2023-02-27T11:57:19;4.93;;;2.17;;
45893;SDS011;31603;51.148;16.932;2023-02-27T11:59:49;3.85;;;1.83;;
45893;SDS011;31603;51.148;16.932;2023-02-27T12:02:21;3.33;;;1.80;;
45893;SDS011;31603;51.148;16.932;2023-02-27T12:04:55;3.97;;;2.47;;
45893;SDS011;31603;51.148;16.932;2023-02-27T12:07:28;5.32;;;2.20;;
45893;SDS011;31603;51.148;16.932;2023-02-27T12:10:01;4.80;;;2.42;;
45893;SDS011;31603;51.148;16.932;2023-02-27T12:12:32;5.20;;;3.03;;
45893;SDS011;31603;51.148;16.932;2023-02-27T12:15:04;5.25;;;2.38;;
45893;SDS011;31603;51.148;16.932;2023-02-27T12:17:46;4.93;;;2.85;;
45893;SDS011;31603;51.148;16.932;2023-02-27T12:20:20;7.30;;;3.20;;
45893;SDS011;31603;51.148;16.932;2023-02-27T12:22:51;4.90;;;3.33;;
45893;SDS011;31603;51.148;16.932;2023-02-27T12:25:24;5.38;;;3.28;;
45893;SDS011;31603;51.148;16.932;2023-02-27T12:27:59;6.32;;;3.75;;
45893;SDS011;31603;51.148;16.932;2023-02-27T12:30:33;9.68;;;4.22;;
45893;SDS011;31603;51.148;16.932;2023-02-27T12:33:08;6.28;;;3.80;;
45893;SDS011;31603;51.148;16.932;2023-02-27T12:35:43;5.65;;;3.78;;
45893;SDS011;31603;51.148;16.932;2023-02-27T12:38:15;5.95;;;3.42;;
45893;SDS011;31603;51.148;16.932;2023-02-27T12:40:45;7.60;;;4.70;;
45893;SDS011;31603;51.148;16.932;2023-02-27T12:43:19;9.15;;;4.38;;
45893;SDS011;31603;51.148;16.932;2023-02-27T12:45:54;8.98;;;5.15;;
45893;SDS011;31603;51.148;16.932;2023-02-27T12:48:39;13.20;;;6.80;;
45893;SDS011;31603;51.148;16.932;2023-02-27T12:51:26;9.18;;;6.20;;
45893;SDS011;31603;51.148;16.932;2023-02-27T12:54:02;11.73;;;6.40;;
45893;SDS011;31603;51.148;16.932;2023-02-27T12:56:42;6.53;;;4.93;;
45893;SDS011;31603;51.148;16.932;2023-02-27T12:59:18;8.85;;;5.20;;
45893;SDS011;31603;51.148;16.932;2023-02-27T13:01:55;10.68;;;5.03;;
45893;SDS011;31603;51.148;16.932;2023-02-27T13:04:33;8.60;;;4.72;;
45893;SDS011;31603;51.148;16.932;2023-02-27T13:07:11;9.95;;;4.00;;
45893;SDS011;31603;51.148;16.932;2023-02-27T13:09:47;9.15;;;4.80;;
45893;SDS011;31603;51.148;16.932;2023-02-27T13:14:48;11.93;;;5.40;;
45893;SDS011;31603;51.148;16.932;2023-02-27T13:17:22;11.85;;;5.20;;
45893;SDS011;31603;51.148;16.932;2023-02-27T13:19:55;11.13;;;5.47;;
45893;SDS011;31603;51.148;16.932;2023-02-27T13:22:30;11.90;;;7.13;;
45893;SDS011;31603;51.148;16.932;2023-02-27T13:25:03;11.88;;;6.95;;
45893;SDS011;31603;51.148;16.932;2023-02-27T13:27:39;9.25;;;5.30;;
45893;SDS011;31603;51.148;16.932;2023-02-27T13:30:11;7.30;;;3.88;;
45893;SDS011;31603;51.148;16.932;2023-02-27T13:32:41;4.82;;;3.17;;
45893;SDS011;31603;51.148;16.932;2023-02-27T13:35:22;5.90;;;3.75;;
45893;SDS011;31603;51.148;16.932;2023-02-27T13:37:53;7.00;;;3.90;;
45893;SDS011;31603;51.148;16.932;2023-02-27T13:40:26;8.88;;;3.72;;
45893;SDS011;31603;51.148;16.932;2023-02-27T13:42:56;5.95;;;3.75;;
45893;SDS011;31603;51.148;16.932;2023-02-27T13:54:38;9.25;;;4.93;;
45893;SDS011;31603;51.148;16.932;2023-02-27T13:57:18;9.15;;;5.28;;
45893;SDS011;31603;51.148;16.932;2023-02-27T13:59:54;12.77;;;6.40;;
45893;SDS011;31603;51.148;16.932;2023-02-27T14:05:30;9.13;;;5.78;;
45893;SDS011;31603;51.148;16.932;2023-02-27T14:08:02;11.77;;;5.70;;
45893;SDS011;31603;51.148;16.932;2023-02-27T14:10:34;9.18;;;6.03;;
45893;SDS011;31603;51.148;16.932;2023-02-27T14:13:02;10.35;;;6.05;;
45893;SDS011;31603;51.148;16.932;2023-02-27T14:15:49;9.50;;;5.55;;
45893;SDS011;31603;51.148;16.932;2023-02-27T14:24:33;11.45;;;5.78;;
45893;SDS011;31603;51.148;16.932;2023-02-27T14:29:42;10.80;;;5.97;;
45893;SDS011;31603;51.148;16.932;2023-02-27T14:32:15;9.75;;;6.20;;
45893;SDS011;31603;51.148;16.932;2023-02-27T14:34:44;9.35;;;5.90;;
45893;SDS011;31603;51.148;16.932;2023-02-27T14:37:12;7.95;;;5.03;;
45893;SDS011;31603;51.148;16.932;2023-02-27T14:39:42;13.68;;;6.35;;
45893;SDS011;31603;51.148;16.932;2023-02-27T14:45:02;7.70;;;4.55;;
45893;SDS011;31603;51.148;16.932;2023-02-27T14:47:30;7.95;;;4.60;;
45893;SDS011;31603;51.148;16.932;2023-02-27T14:50:00;12.05;;;5.00;;
45893;SDS011;31603;51.148;16.932;2023-02-27T14:52:28;8.30;;;5.05;;
45893;SDS011;31603;51.148;16.932;2023-02-27T14:55:04;11.13;;;5.47;;
45893;SDS011;31603;51.148;16.932;2023-02-27T14:57:38;15.85;;;8.93;;
45893;SDS011;31603;51.148;16.932;2023-02-27T15:00:05;18.13;;;7.93;;
45893;SDS011;31603;51.148;16.932;2023-02-27T15:02:33;9.40;;;6.18;;
45893;SDS011;31603;51.148;16.932;2023-02-27T15:05:11;11.85;;;6.10;;
45893;SDS011;31603;51.148;16.932;2023-02-27T15:07:42;10.20;;;6.13;;
45893;SDS011;31603;51.148;16.932;2023-02-27T15:10:16;21.85;;;10.90;;
45893;SDS011;31603;51.148;16.932;2023-02-27T15:12:49;25.55;;;11.65;;
45893;SDS011;31603;51.148;16.932;2023-02-27T15:15:17;31.88;;;14.80;;
45893;SDS011;31603;51.148;16.932;2023-02-27T15:17:46;16.48;;;10.27;;
45893;SDS011;31603;51.148;16.932;2023-02-27T15:20:21;17.55;;;9.40;;
45893;SDS011;31603;51.148;16.932;2023-02-27T15:22:51;28.15;;;13.85;;
45893;SDS011;31603;51.148;16.932;2023-02-27T15:25:25;32.90;;;18.13;;
45893;SDS011;31603;51.148;16.932;2023-02-27T15:27:56;23.20;;;12.00;;
45893;SDS011;31603;51.148;16.932;2023-02-27T15:30:27;17.88;;;10.93;;
45893;SDS011;31603;51.148;16.932;2023-02-27T15:32:54;16.13;;;10.13;;